Time;durP1;ratioP1;P1;durP2;ratioP2;P2;SDS_P1;SDS_P2;PMS_P1;PMS_P2;Temp;Humidity;BMP_temperature;BMP_pressure;BME280_temperature;BME280_humidity;BME280_pressure;Samples;Min_cycle;Max_cycle;Signal;HPM_P1;HPM_P2
2021/03/08 00:02:23;;;;;;;20.92;8.82;;;3.70;99.90;;;;;;10210889;28;20049;-49
2021/03/08 00:07:45;;;;;;;16.80;5.70;;;3.70;99.90;;;;;;10207609;29;20050;-49
2021/03/08 00:13:06;;;;;;;16.38;5.70;;;3.70;99.90;;;;;;10211278;28;20102;-49
2021/03/08 00:18:27;;;;;;;12.57;4.95;;;3.70;99.90;;;;;;10222305;29;20554;-49
2021/03/08 00:23:48;;;;;;;17.40;6.40;;;3.70;99.90;;;;;;10206214;28;20788;-49
2021/03/08 00:29:09;;;;;;;13.40;4.63;;;3.70;99.90;;;;;;10208836;29;20055;-49
2021/03/08 00:34:30;;;;;;;12.25;5.47;;;3.70;99.90;;;;;;10205683;28;20057;-49
2021/03/08 00:39:51;;;;;;;12.18;7.18;;;3.70;99.90;;;;;;10227081;28;20035;-49
2021/03/08 00:45:15;;;;;;;22.67;5.80;;;3.70;99.90;;;;;;10207537;29;20472;-49
2021/03/08 00:50:36;;;;;;;25.05;5.20;;;3.70;99.90;;;;;;10221776;29;20046;-49
2021/03/08 00:55:57;;;;;;;18.58;5.68;;;3.80;99.90;;;;;;10198183;28;20054;-49
2021/03/08 01:01:18;;;;;;;17.00;6.70;;;3.80;99.90;;;;;;10205392;28;20492;-50
2021/03/08 01:06:39;;;;;;;18.15;5.10;;;3.70;99.90;;;;;;10203723;28;20043;-49
2021/03/08 01:12:00;;;;;;;16.70;6.30;;;3.80;99.90;;;;;;10200351;28;20043;-48
2021/03/08 01:17:21;;;;;;;13.23;6.05;;;3.70;99.90;;;;;;10202959;28;20036;-49
2021/03/08 01:22:43;;;;;;;18.15;6.65;;;3.70;99.90;;;;;;10202656;29;20040;-49
2021/03/08 01:28:04;;;;;;;13.50;5.22;;;3.70;99.90;;;;;;10205808;28;20278;-49
2021/03/08 01:33:25;;;;;;;11.65;4.55;;;3.60;99.90;;;;;;10202703;29;20046;-49
2021/03/08 01:38:46;;;;;;;20.88;6.60;;;3.60;99.90;;;;;;10198208;28;20369;-49
2021/03/08 01:44:07;;;;;;;18.00;5.05;;;3.70;99.90;;;;;;10200883;28;20040;-49
2021/03/08 01:49:28;;;;;;;21.50;5.68;;;3.60;99.90;;;;;;10200707;28;20052;-49
2021/03/08 01:54:49;;;;;;;16.70;4.93;;;3.60;99.90;;;;;;10207511;28;20495;-49
2021/03/08 02:00:14;;;;;;;12.80;4.85;;;3.60;99.90;;;;;;10203656;28;20035;-49
2021/03/08 02:05:39;;;;;;;14.88;4.85;;;3.60;99.90;;;;;;10203674;28;20161;-49
2021/03/08 02:11:00;;;;;;;19.48;5.95;;;3.60;99.90;;;;;;10200823;28;20051;-49
2021/03/08 02:16:30;;;;;;;17.77;5.60;;;3.60;99.90;;;;;;10200372;28;20043;-49
2021/03/08 02:22:03;;;;;;;15.40;6.32;;;3.60;99.90;;;;;;10205084;28;20046;-49
2021/03/08 02:27:42;;;;;;;17.23;6.22;;;3.60;99.90;;;;;;10200192;28;20051;-49
2021/03/08 02:33:07;;;;;;;12.10;5.50;;;3.60;99.90;;;;;;10198828;28;20062;-49
2021/03/08 02:38:32;;;;;;;13.23;5.47;;;3.70;99.90;;;;;;10202771;28;20151;-49
2021/03/08 02:43:59;;;;;;;16.63;5.85;;;3.70;99.90;;;;;;10202921;28;20116;-49
2021/03/08 02:49:23;;;;;;;11.40;4.65;;;3.70;99.90;;;;;;10199524;28;20070;-49
2021/03/08 02:54:50;;;;;;;19.77;6.05;;;3.70;99.90;;;;;;10201980;28;20047;-49
2021/03/08 03:00:13;;;;;;;23.65;5.43;;;3.60;99.90;;;;;;10200629;28;20104;-49
2021/03/08 03:05:37;;;;;;;17.10;5.68;;;3.60;99.90;;;;;;10203473;28;20875;-49
2021/03/08 03:10:59;;;;;;;14.38;6.10;;;3.70;99.90;;;;;;10203436;28;20070;-49
2021/03/08 03:16:21;;;;;;;17.42;6.07;;;3.70;99.90;;;;;;10198067;28;20044;-49
2021/03/08 03:21:44;;;;;;;21.05;6.63;;;3.70;99.90;;;;;;10199595;28;20228;-49
2021/03/08 03:27:06;;;;;;;14.27;5.75;;;3.70;99.90;;;;;;10199385;28;20127;-49
2021/03/08 03:32:27;;;;;;;17.23;5.50;;;3.70;99.90;;;;;;10197324;28;20073;-49
2021/03/08 03:37:49;;;;;;;19.88;5.10;;;3.70;99.90;;;;;;10197121;28;20404;-49
2021/03/08 03:43:10;;;;;;;15.93;4.68;;;3.60;99.90;;;;;;10198245;28;20060;-49
2021/03/08 03:48:34;;;;;;;26.52;5.53;;;3.60;99.90;;;;;;10197487;28;20047;-49
2021/03/08 03:53:55;;;;;;;20.90;6.15;;;3.70;99.90;;;;;;10203818;28;21176;-49
2021/03/08 03:59:26;;;;;;;16.52;5.53;;;3.60;99.90;;;;;;10204926;28;20435;-49
2021/03/08 04:04:53;;;;;;;30.25;6.35;;;3.60;99.90;;;;;;10196573;28;20139;-49
2021/03/08 04:10:14;;;;;;;15.65;6.03;;;3.60;99.90;;;;;;10198971;28;20036;-49
2021/03/08 04:15:36;;;;;;;17.95;6.25;;;3.60;99.90;;;;;;10195942;28;20090;-49
2021/03/08 04:20:59;;;;;;;12.35;4.80;;;3.60;99.90;;;;;;10202194;28;20039;-49
2021/03/08 04:26:22;;;;;;;15.60;5.60;;;3.60;99.90;;;;;;10197319;28;20491;-49
2021/03/08 04:31:43;;;;;;;20.30;4.97;;;3.60;99.90;;;;;;10200139;29;20137;-50
2021/03/08 04:37:05;;;;;;;19.13;7.13;;;3.60;99.90;;;;;;10205708;28;20027;-49
2021/03/08 04:42:27;;;;;;;14.57;5.97;;;3.60;99.90;;;;;;10206918;28;20075;-49
2021/03/08 04:47:49;;;;;;;16.10;5.47;;;3.70;99.90;;;;;;10207912;28;20447;-49
2021/03/08 04:53:10;;;;;;;13.50;3.97;;;3.60;99.90;;;;;;10201814;28;20047;-49
2021/03/08 04:58:32;;;;;;;14.60;5.20;;;3.60;99.90;;;;;;10206856;28;20115;-49
2021/03/08 05:03:55;;;;;;;11.32;4.35;;;3.60;99.90;;;;;;10202738;28;20044;-49
2021/03/08 05:09:18;;;;;;;17.52;6.28;;;3.70;99.90;;;;;;10202587;28;20435;-49
2021/03/08 05:14:41;;;;;;;14.52;3.67;;;3.70;99.90;;;;;;10204163;28;20081;-49
2021/03/08 05:20:05;;;;;;;15.45;4.90;;;3.80;99.90;;;;;;10205460;28;20055;-49
2021/03/08 05:25:26;;;;;;;18.95;5.00;;;3.80;99.90;;;;;;10202904;28;20044;-49
2021/03/08 05:30:52;;;;;;;13.80;4.70;;;3.80;99.90;;;;;;10204975;28;20044;-49
2021/03/08 05:36:14;;;;;;;14.07;4.60;;;3.90;99.90;;;;;;10202275;28;20531;-49
2021/03/08 05:41:54;;;;;;;21.38;6.57;;;3.90;99.90;;;;;;10204960;28;20546;-49
2021/03/08 05:47:35;;;;;;;18.20;7.43;;;3.90;99.90;;;;;;10201337;28;20028;-49
2021/03/08 05:53:33;;;;;;;13.15;5.07;;;3.90;99.90;;;;;;10201535;29;20129;-49
2021/03/08 05:59:06;;;;;;;16.00;6.70;;;3.90;99.90;;;;;;10200953;28;20058;-49
2021/03/08 06:04:56;;;;;;;18.52;6.38;;;3.90;99.90;;;;;;10199539;28;20472;-49
2021/03/08 06:10:27;;;;;;;14.63;5.10;;;3.90;99.90;;;;;;10203685;28;20035;-49
2021/03/08 06:15:59;;;;;;;17.02;5.45;;;3.90;99.90;;;;;;10203197;28;20050;-49
2021/03/08 06:21:20;;;;;;;13.18;4.88;;;3.90;99.90;;;;;;10203497;28;20118;-49
2021/03/08 06:26:42;;;;;;;12.30;4.95;;;3.90;99.90;;;;;;10203344;28;20504;-49
2021/03/08 06:32:05;;;;;;;15.27;5.68;;;3.90;99.90;;;;;;10205781;29;20059;-49
2021/03/08 06:37:27;;;;;;;16.38;4.45;;;3.90;99.90;;;;;;10205458;28;20050;-49
2021/03/08 06:42:51;;;;;;;15.70;5.10;;;3.90;99.90;;;;;;10202105;29;20043;-49
2021/03/08 06:48:13;;;;;;;19.05;6.53;;;4.10;99.90;;;;;;10213391;29;20028;-49
2021/03/08 06:53:34;;;;;;;19.73;8.05;;;4.10;99.90;;;;;;10209390;28;20043;-49
2021/03/08 06:59:07;;;;;;;15.07;5.18;;;4.10;99.90;;;;;;10200103;28;20083;-49
2021/03/08 07:04:29;;;;;;;14.73;5.20;;;4.10;99.90;;;;;;10203485;28;20508;-49
2021/03/08 07:09:52;;;;;;;19.13;4.95;;;4.10;99.90;;;;;;10205107;28;20048;-49
2021/03/08 07:15:13;;;;;;;14.25;5.68;;;4.20;99.90;;;;;;10200006;28;20058;-49
2021/03/08 07:20:34;;;;;;;18.80;5.63;;;4.30;99.90;;;;;;10199107;28;20036;-49
2021/03/08 07:26:06;;;;;;;14.07;5.28;;;4.40;99.90;;;;;;10199090;28;20042;-49
2021/03/08 07:31:36;;;;;;;11.23;4.93;;;4.50;99.90;;;;;;10163487;29;20449;-49
2021/03/08 07:37:02;;;;;;;9.13;4.80;;;4.50;99.90;;;;;;10161001;29;20194;-49
2021/03/08 07:42:23;;;;;;;17.20;5.85;;;4.50;99.90;;;;;;10169066;29;20055;-49
2021/03/08 07:47:44;;;;;;;15.70;4.95;;;4.60;99.90;;;;;;10167362;29;20046;-49
2021/03/08 07:53:24;;;;;;;20.88;5.38;;;4.80;99.90;;;;;;10174799;29;20231;-48
2021/03/08 07:58:46;;;;;;;13.38;5.20;;;4.80;99.90;;;;;;10169572;29;20055;-48
2021/03/08 08:04:07;;;;;;;25.42;7.50;;;4.90;99.90;;;;;;10162096;29;20067;-49
2021/03/08 08:09:30;;;;;;;19.17;5.05;;;4.90;99.90;;;;;;10162050;29;20048;-49
2021/03/08 08:14:52;;;;;;;15.00;4.55;;;5.00;99.90;;;;;;10174718;29;20472;-49
2021/03/08 08:20:14;;;;;;;14.43;4.65;;;5.10;99.90;;;;;;10171557;29;20036;-49
2021/03/08 08:25:37;;;;;;;17.02;4.88;;;5.20;99.90;;;;;;10164294;29;20056;-49
2021/03/08 08:30:59;;;;;;;17.17;5.00;;;5.20;99.90;;;;;;10206429;28;20059;-49
2021/03/08 08:36:24;;;;;;;16.08;4.20;;;5.30;99.90;;;;;;10206676;28;20047;-49
2021/03/08 08:41:45;;;;;;;14.77;4.47;;;5.50;99.90;;;;;;10206818;28;20408;-49
2021/03/08 08:47:20;;;;;;;17.05;5.07;;;5.60;99.90;;;;;;10206614;28;20035;-49
2021/03/08 08:52:56;;;;;;;14.57;4.45;;;5.70;99.90;;;;;;10206494;28;20074;-49
2021/03/08 08:58:21;;;;;;;13.68;4.47;;;5.90;99.90;;;;;;10198788;28;20040;-49
2021/03/08 09:03:57;;;;;;;12.68;4.13;;;6.20;99.90;;;;;;10204264;28;20047;-49
2021/03/08 09:09:30;;;;;;;15.57;3.83;;;6.20;99.90;;;;;;10208330;28;20118;-49
2021/03/08 09:14:55;;;;;;;7.35;2.80;;;6.40;99.90;;;;;;10209699;28;20515;-49
2021/03/08 09:20:17;;;;;;;14.85;3.67;;;6.40;99.90;;;;;;10206077;28;20170;-49
2021/03/08 09:25:38;;;;;;;10.55;3.08;;;6.50;99.90;;;;;;10207184;28;20047;-49
2021/03/08 09:31:00;;;;;;;10.65;4.22;;;6.40;99.90;;;;;;10209399;29;20039;-49
2021/03/08 09:36:21;;;;;;;9.32;3.45;;;6.50;99.90;;;;;;10203879;28;20065;-49
2021/03/08 09:41:42;;;;;;;7.78;3.30;;;6.80;99.90;;;;;;10206264;28;20031;-49
2021/03/08 09:47:03;;;;;;;8.23;2.90;;;7.10;99.90;;;;;;10208409;28;20036;-49
2021/03/08 09:52:31;;;;;;;13.45;3.20;;;7.20;99.90;;;;;;10205266;29;20047;-49
2021/03/08 09:57:52;;;;;;;11.73;2.95;;;7.30;99.90;;;;;;10207463;28;20050;-49
2021/03/08 10:03:14;;;;;;;10.23;3.22;;;7.50;99.90;;;;;;10207669;28;20039;-49
2021/03/08 10:08:35;;;;;;;15.43;4.40;;;7.60;99.90;;;;;;10207524;28;20043;-49
2021/03/08 10:13:57;;;;;;;9.70;3.17;;;7.70;99.90;;;;;;10209128;28;20054;-49
2021/03/08 10:19:21;;;;;;;10.75;3.38;;;8.00;99.90;;;;;;10197318;28;20148;-49
2021/03/08 10:24:42;;;;;;;11.38;4.32;;;8.20;99.90;;;;;;10193408;28;20403;-49
2021/03/08 10:30:04;;;;;;;9.77;2.42;;;8.50;99.90;;;;;;10207481;28;20502;-49
2021/03/08 10:35:25;;;;;;;9.70;4.13;;;8.90;99.90;;;;;;10199788;28;20214;-49
2021/03/08 10:40:46;;;;;;;10.98;3.53;;;9.30;99.90;;;;;;10204611;28;20161;-49
2021/03/08 10:46:07;;;;;;;12.15;2.75;;;9.90;99.90;;;;;;10205595;28;20035;-49
2021/03/08 10:51:29;;;;;;;12.68;4.20;;;9.70;99.90;;;;;;10220584;29;20126;-49
2021/03/08 10:56:59;;;;;;;12.57;4.05;;;9.40;99.90;;;;;;10202678;28;20191;-49
2021/03/08 11:02:21;;;;;;;8.93;3.42;;;10.20;99.90;;;;;;10208306;28;21411;-49
2021/03/08 11:07:42;;;;;;;10.25;3.92;;;10.50;99.90;;;;;;10204531;28;20992;-49
2021/03/08 11:13:07;;;;;;;7.28;2.47;;;10.60;99.90;;;;;;10201221;28;20099;-49
2021/03/08 11:18:28;;;;;;;8.88;3.40;;;10.50;99.90;;;;;;10198643;28;20122;-49
2021/03/08 11:23:50;;;;;;;6.30;2.60;;;10.30;99.90;;;;;;10201863;28;20050;-49
2021/03/08 11:29:26;;;;;;;7.63;2.13;;;10.30;99.90;;;;;;10190310;28;20130;-49
2021/03/08 11:34:51;;;;;;;7.10;3.17;;;11.30;99.90;;;;;;10200254;28;20494;-49
2021/03/08 11:40:17;;;;;;;10.15;3.85;;;11.90;99.90;;;;;;10201309;28;20733;-49
2021/03/08 11:45:38;;;;;;;10.55;3.78;;;11.90;99.90;;;;;;10203211;28;20146;-49
2021/03/08 11:50:59;;;;;;;13.05;3.55;;;12.70;99.60;;;;;;10208440;28;20380;-49
2021/03/08 11:56:20;;;;;;;9.45;2.75;;;12.70;99.90;;;;;;10206126;28;20054;-49
2021/03/08 12:01:41;;;;;;;8.98;2.67;;;12.80;99.90;;;;;;10213950;28;20039;-49
2021/03/08 12:07:02;;;;;;;6.82;3.13;;;12.90;99.50;;;;;;10208745;28;20036;-49
2021/03/08 12:12:23;;;;;;;6.55;3.40;;;12.60;99.90;;;;;;10208172;28;20046;-49
2021/03/08 12:17:43;;;;;;;8.02;3.22;;;12.40;99.90;;;;;;10211229;28;20047;-49
2021/03/08 12:23:04;;;;;;;6.13;2.10;;;12.20;99.90;;;;;;10198952;28;20508;-49
2021/03/08 12:28:25;;;;;;;5.47;2.88;;;12.20;99.90;;;;;;10207714;28;20062;-49
2021/03/08 12:33:47;;;;;;;5.97;2.50;;;11.80;99.90;;;;;;10206284;28;20047;-49
2021/03/08 12:39:08;;;;;;;4.53;1.95;;;11.60;99.90;;;;;;10205837;28;20525;-49
2021/03/08 12:44:29;;;;;;;5.47;2.88;;;11.40;99.90;;;;;;10204795;28;20054;-49
2021/03/08 12:49:50;;;;;;;11.73;4.00;;;11.20;99.90;;;;;;10187689;28;20490;-49
2021/03/08 12:55:11;;;;;;;6.70;2.83;;;11.30;99.90;;;;;;10209988;28;20451;-49
2021/03/08 13:00:33;;;;;;;7.18;2.25;;;11.70;99.90;;;;;;10203880;28;20705;-49
2021/03/08 13:05:54;;;;;;;6.43;2.33;;;11.70;99.90;;;;;;10209556;28;20071;-49
2021/03/08 13:11:15;;;;;;;7.38;3.88;;;12.00;99.70;;;;;;10209256;28;20051;-49
2021/03/08 13:16:36;;;;;;;6.57;2.28;;;12.20;99.90;;;;;;10216423;28;20043;-49
2021/03/08 13:21:57;;;;;;;6.57;2.13;;;12.30;99.90;;;;;;10207491;28;20040;-49
2021/03/08 13:27:18;;;;;;;7.65;2.67;;;12.00;99.70;;;;;;10204562;28;20043;-49
2021/03/08 13:32:39;;;;;;;4.85;2.30;;;12.60;98.10;;;;;;10205771;28;20132;-49
2021/03/08 13:38:00;;;;;;;7.10;1.42;;;13.00;95.80;;;;;;10207396;28;20362;-49
2021/03/08 13:43:21;;;;;;;10.88;2.85;;;13.40;94.90;;;;;;10206429;28;20035;-49
2021/03/08 13:48:44;;;;;;;6.18;3.38;;;13.10;95.80;;;;;;10199079;28;20047;-49
2021/03/08 13:54:05;;;;;;;5.93;2.00;;;12.40;99.30;;;;;;10201739;28;20270;-49
2021/03/08 13:59:26;;;;;;;6.20;2.17;;;11.80;99.90;;;;;;10196743;28;20039;-49
2021/03/08 14:04:47;;;;;;;6.28;2.80;;;11.50;99.90;;;;;;10199541;28;20048;-49
2021/03/08 14:10:08;;;;;;;8.52;2.42;;;11.40;99.90;;;;;;10202535;28;20044;-49
2021/03/08 14:15:31;;;;;;;7.55;2.83;;;11.20;99.90;;;;;;10201396;28;20043;-49
2021/03/08 14:20:52;;;;;;;5.80;2.80;;;11.10;99.90;;;;;;10206669;28;20050;-49
2021/03/08 14:26:17;;;;;;;7.05;3.72;;;11.20;99.90;;;;;;10208658;28;20585;-49
2021/03/08 14:31:38;;;;;;;6.10;2.25;;;11.10;99.90;;;;;;10210889;28;20047;-49
2021/03/08 14:36:59;;;;;;;8.35;3.53;;;11.60;99.90;;;;;;10194334;28;20372;-49
2021/03/08 14:42:20;;;;;;;9.63;3.35;;;11.70;99.90;;;;;;10201955;28;21120;-49
2021/03/08 14:47:41;;;;;;;7.82;3.00;;;12.10;99.90;;;;;;10200973;28;20063;-49
2021/03/08 14:53:02;;;;;;;7.60;2.97;;;11.80;99.90;;;;;;10200853;28;20203;-49
2021/03/08 14:58:23;;;;;;;6.47;3.08;;;11.40;99.90;;;;;;10187728;28;20039;-49
2021/03/08 15:03:44;;;;;;;5.93;2.78;;;10.70;99.90;;;;;;10198544;28;20398;-49
2021/03/08 15:09:05;;;;;;;11.65;3.03;;;10.50;99.90;;;;;;10202413;28;20058;-49
2021/03/08 15:14:26;;;;;;;7.82;2.95;;;10.70;99.90;;;;;;10197153;28;20043;-48
2021/03/08 15:19:49;;;;;;;7.97;3.03;;;10.80;99.90;;;;;;10199823;28;20047;-49
2021/03/08 15:25:11;;;;;;;10.20;3.38;;;10.70;99.90;;;;;;10193959;28;20257;-49
2021/03/08 15:30:32;;;;;;;11.65;3.15;;;10.50;99.90;;;;;;10193550;28;20062;-49
2021/03/08 15:35:53;;;;;;;9.60;3.38;;;10.20;99.90;;;;;;10194721;28;20046;-49
2021/03/08 15:41:14;;;;;;;8.02;3.33;;;9.90;99.90;;;;;;10179724;28;20054;-49
2021/03/08 15:46:35;;;;;;;10.20;2.50;;;9.70;99.90;;;;;;10199258;28;20031;-49
2021/03/08 15:51:56;;;;;;;6.85;2.45;;;9.40;99.90;;;;;;10194513;28;20323;-49
2021/03/08 15:57:17;;;;;;;7.57;2.30;;;9.30;99.90;;;;;;10192647;28;20094;-49
2021/03/08 16:02:38;;;;;;;5.65;2.20;;;9.20;99.90;;;;;;10198734;28;20123;-49
2021/03/08 16:07:59;;;;;;;7.50;2.08;;;9.10;99.90;;;;;;10195671;28;20028;-49
2021/03/08 16:13:21;;;;;;;9.68;3.03;;;9.00;99.90;;;;;;10194549;28;20082;-49
2021/03/08 16:18:42;;;;;;;8.55;2.85;;;8.90;99.90;;;;;;10201318;28;20047;-49
2021/03/08 16:24:04;;;;;;;9.60;3.28;;;8.80;99.90;;;;;;10194210;28;20518;-49
2021/03/08 16:29:25;;;;;;;8.48;3.58;;;8.70;99.90;;;;;;10192066;28;20097;-48
2021/03/08 16:34:46;;;;;;;11.13;4.57;;;8.50;99.90;;;;;;10207094;28;20047;-49
2021/03/08 16:40:09;;;;;;;6.90;2.83;;;8.40;99.90;;;;;;10205699;28;20502;-48
2021/03/08 16:45:30;;;;;;;11.05;2.78;;;8.30;99.90;;;;;;10202680;28;20069;-49
2021/03/08 16:50:51;;;;;;;12.60;3.10;;;8.20;99.90;;;;;;10213343;28;20178;-48
2021/03/08 16:56:12;;;;;;;8.50;3.13;;;8.10;99.90;;;;;;10199290;28;20487;-49
2021/03/08 17:01:33;;;;;;;7.00;1.83;;;8.00;99.90;;;;;;10207788;28;20453;-49
2021/03/08 17:06:54;;;;;;;10.38;3.22;;;7.90;99.90;;;;;;10204637;28;20035;-48
2021/03/08 17:12:15;;;;;;;7.85;3.78;;;7.70;99.90;;;;;;10200870;28;20103;-49
2021/03/08 17:17:38;;;;;;;9.07;3.30;;;7.60;99.90;;;;;;10202588;28;20047;-48
2021/03/08 17:22:59;;;;;;;11.95;2.95;;;7.50;99.90;;;;;;10203805;28;20066;-49
2021/03/08 17:28:20;;;;;;;9.63;2.60;;;7.30;99.90;;;;;;10201356;28;20775;-49
2021/03/08 17:33:41;;;;;;;6.07;2.88;;;7.30;99.90;;;;;;10202460;28;20533;-49
2021/03/08 17:39:02;;;;;;;7.57;3.17;;;7.10;99.90;;;;;;10201516;28;20047;-49
2021/03/08 17:44:23;;;;;;;8.27;2.95;;;7.20;99.90;;;;;;10205709;28;20161;-49
2021/03/08 17:49:44;;;;;;;6.10;2.38;;;7.20;99.90;;;;;;10195006;28;20043;-49
2021/03/08 17:55:19;;;;;;;7.47;2.65;;;7.00;99.90;;;;;;10187754;28;20146;-49
2021/03/08 18:00:40;;;;;;;9.73;3.03;;;6.90;99.90;;;;;;10183777;28;20550;-49
2021/03/08 18:06:01;;;;;;;7.07;3.13;;;6.80;99.90;;;;;;10193366;28;20368;-49
2021/03/08 18:11:21;;;;;;;8.30;3.22;;;6.70;99.90;;;;;;10190849;28;20075;-49
2021/03/08 18:16:43;;;;;;;8.63;2.25;;;6.70;99.90;;;;;;10184377;28;20246;-49
2021/03/08 18:22:04;;;;;;;13.70;3.53;;;6.70;99.90;;;;;;10185786;28;20039;-48
2021/03/08 18:27:25;;;;;;;10.63;3.10;;;6.60;99.90;;;;;;10189083;28;20047;-49
2021/03/08 18:32:46;;;;;;;7.85;3.33;;;6.50;99.90;;;;;;10188489;28;20598;-49
2021/03/08 18:38:07;;;;;;;12.85;3.30;;;6.40;99.90;;;;;;10194894;28;20036;-49
2021/03/08 18:43:28;;;;;;;9.55;2.92;;;6.50;99.90;;;;;;10192850;28;20032;-48
2021/03/08 18:48:49;;;;;;;8.43;3.40;;;6.30;99.90;;;;;;10195196;28;20035;-49
2021/03/08 18:54:11;;;;;;;9.57;4.13;;;6.10;99.90;;;;;;10194061;28;20051;-49
2021/03/08 18:59:31;;;;;;;6.45;2.58;;;6.10;99.90;;;;;;10189854;28;20668;-49
2021/03/08 19:05:02;;;;;;;13.48;4.18;;;6.00;99.90;;;;;;10172690;28;20157;-49
2021/03/08 19:10:23;;;;;;;12.98;4.35;;;5.80;99.90;;;;;;10188404;28;20031;-49
2021/03/08 19:15:44;;;;;;;11.50;3.63;;;5.70;99.90;;;;;;10173008;28;20043;-49
2021/03/08 19:21:05;;;;;;;7.82;3.75;;;5.60;99.90;;;;;;10178906;28;20043;-49
2021/03/08 19:26:26;;;;;;;13.45;3.97;;;5.60;99.90;;;;;;10180065;28;20122;-49
2021/03/08 19:31:47;;;;;;;12.18;3.58;;;5.60;99.90;;;;;;10174919;28;20044;-49
2021/03/08 19:37:09;;;;;;;15.32;4.13;;;5.70;99.90;;;;;;10171490;28;20039;-49
2021/03/08 19:42:31;;;;;;;10.60;4.85;;;5.60;99.90;;;;;;10176741;28;20046;-49
2021/03/08 19:47:52;;;;;;;15.02;5.20;;;5.60;99.90;;;;;;10182743;28;20484;-49
2021/03/08 19:53:14;;;;;;;14.35;5.00;;;5.40;99.90;;;;;;10182649;28;20051;-49
2021/03/08 19:58:35;;;;;;;17.42;5.38;;;5.30;99.90;;;;;;10183386;28;20040;-49
2021/03/08 20:03:56;;;;;;;17.02;5.57;;;5.40;99.90;;;;;;10177133;28;20670;-49
2021/03/08 20:09:17;;;;;;;17.08;4.93;;;5.40;99.90;;;;;;10176980;28;20395;-49
2021/03/08 20:14:40;;;;;;;14.05;4.38;;;5.20;99.90;;;;;;10191057;28;20480;-49
2021/03/08 20:20:02;;;;;;;14.38;4.75;;;5.10;99.90;;;;;;10190813;28;20039;-49
2021/03/08 20:25:29;;;;;;;11.30;4.53;;;5.10;99.90;;;;;;10159561;28;20048;-49
2021/03/08 20:30:50;;;;;;;13.25;3.95;;;5.10;99.90;;;;;;10189499;28;20198;-49
2021/03/08 20:36:11;;;;;;;17.77;5.78;;;5.10;99.90;;;;;;10181852;28;20042;-49
2021/03/08 20:41:32;;;;;;;10.20;4.07;;;5.10;99.90;;;;;;10172885;28;20055;-49
2021/03/08 20:46:53;;;;;;;11.80;4.05;;;5.00;99.90;;;;;;10185765;28;20040;-49
2021/03/08 20:52:14;;;;;;;14.30;5.07;;;4.90;99.90;;;;;;10181843;28;20039;-49
2021/03/08 20:57:36;;;;;;;15.57;5.85;;;5.10;99.90;;;;;;10177418;28;20460;-49
2021/03/08 21:02:57;;;;;;;14.82;3.97;;;5.00;99.90;;;;;;10183113;28;20828;-50
2021/03/08 21:08:18;;;;;;;9.73;3.30;;;5.10;99.90;;;;;;10183222;28;20035;-50
2021/03/08 21:13:39;;;;;;;11.73;4.80;;;5.00;99.90;;;;;;10183367;28;20056;-50
2021/03/08 21:19:00;;;;;;;13.48;4.15;;;5.00;99.90;;;;;;10180039;28;20074;-51
2021/03/08 21:24:21;;;;;;;8.90;4.05;;;4.90;99.90;;;;;;10180064;28;20044;-50
2021/03/08 21:29:42;;;;;;;9.82;2.70;;;5.00;99.90;;;;;;10157750;28;623098;-50
2021/03/08 21:35:05;;;;;;;11.55;2.50;;;4.90;99.90;;;;;;10190511;28;20039;-50
2021/03/08 21:40:26;;;;;;;7.28;3.00;;;4.90;99.90;;;;;;10198353;28;20054;-50
2021/03/08 21:45:47;;;;;;;6.93;2.38;;;4.80;99.90;;;;;;10203733;28;20036;-50
2021/03/08 21:51:08;;;;;;;11.20;2.50;;;4.90;99.90;;;;;;10195004;28;20059;-50
2021/03/08 21:56:29;;;;;;;8.50;4.35;;;4.80;99.90;;;;;;10200989;28;20240;-50
2021/03/08 22:01:50;;;;;;;6.60;3.20;;;4.80;99.90;;;;;;10202971;28;20119;-51
2021/03/08 22:07:11;;;;;;;14.70;4.25;;;4.80;99.90;;;;;;10203258;28;20297;-51
2021/03/08 22:12:33;;;;;;;12.55;5.07;;;4.80;99.90;;;;;;10201431;28;20597;-51
2021/03/08 22:17:54;;;;;;;10.05;3.78;;;4.80;99.90;;;;;;10199700;28;20110;-51
2021/03/08 22:23:15;;;;;;;12.05;3.70;;;4.80;99.90;;;;;;10191662;28;20134;-51
2021/03/08 22:28:36;;;;;;;10.95;3.72;;;4.80;99.90;;;;;;10198011;28;20470;-51
2021/03/08 22:33:57;;;;;;;17.00;4.88;;;4.80;99.90;;;;;;10183227;28;20055;-51
2021/03/08 22:39:18;;;;;;;11.55;4.50;;;4.80;99.90;;;;;;10186311;28;20046;-51
2021/03/08 22:44:39;;;;;;;11.45;4.60;;;4.90;99.90;;;;;;10200885;28;20067;-52
2021/03/08 22:50:00;;;;;;;9.50;3.58;;;4.90;99.90;;;;;;10200022;28;20036;-52
2021/03/08 22:55:21;;;;;;;12.13;4.10;;;4.90;99.90;;;;;;10199482;28;20067;-53
2021/03/08 23:00:42;;;;;;;10.57;4.43;;;4.90;99.90;;;;;;10198128;28;20134;-52
2021/03/08 23:06:03;;;;;;;16.80;6.47;;;5.00;99.90;;;;;;10201610;28;20052;-52
2021/03/08 23:11:26;;;;;;;13.73;5.57;;;4.90;99.90;;;;;;10194536;28;20056;-52
2021/03/08 23:16:49;;;;;;;21.33;6.40;;;4.90;99.90;;;;;;10208456;28;20059;-52
2021/03/08 23:22:11;;;;;;;14.25;4.07;;;4.80;99.90;;;;;;10194991;28;20470;-52
2021/03/08 23:27:32;;;;;;;24.38;3.97;;;5.00;99.90;;;;;;10201716;28;20093;-52
2021/03/08 23:32:53;;;;;;;17.38;4.70;;;4.90;99.90;;;;;;10198348;28;20058;-52
2021/03/08 23:38:14;;;;;;;15.57;5.28;;;4.90;99.90;;;;;;10200487;28;20543;-52
2021/03/08 23:43:35;;;;;;;13.25;5.00;;;4.90;99.90;;;;;;10202001;28;20046;-52
2021/03/08 23:48:56;;;;;;;11.00;4.13;;;4.90;99.90;;;;;;10200473;28;20042;-53
2021/03/08 23:54:17;;;;;;;8.55;2.80;;;4.80;99.90;;;;;;10195987;28;20188;-53
2021/03/08 23:59:38;;;;;;;9.23;3.63;;;4.80;99.90;;;;;;10198054;28;20525;-52
